sensor_id;sensor_type;location;lat;lon;timestamp;temperature;humidity
32293;DHT22;43233;48.608;8.838;2023-04-08T00:01:52;7.30;90.20
32293;DHT22;43233;48.608;8.838;2023-04-08T00:04:19;7.30;90.00
32293;DHT22;43233;48.608;8.838;2023-04-08T00:06:44;7.30;89.70
32293;DHT22;43233;48.608;8.838;2023-04-08T00:09:10;7.30;90.20
32293;DHT22;43233;48.608;8.838;2023-04-08T00:11:36;7.30;89.90
32293;DHT22;43233;48.608;8.838;2023-04-08T00:14:03;7.30;89.60
32293;DHT22;43233;48.608;8.838;2023-04-08T00:16:29;7.30;89.90
32293;DHT22;43233;48.608;8.838;2023-04-08T00:18:55;7.30;89.40
32293;DHT22;43233;48.608;8.838;2023-04-08T00:21:21;7.30;89.70
32293;DHT22;43233;48.608;8.838;2023-04-08T00:23:47;7.40;89.90
32293;DHT22;43233;48.608;8.838;2023-04-08T00:26:13;7.40;89.70
32293;DHT22;43233;48.608;8.838;2023-04-08T00:28:39;7.40;89.20
32293;DHT22;43233;48.608;8.838;2023-04-08T00:31:05;7.50;89.10
32293;DHT22;43233;48.608;8.838;2023-04-08T00:33:31;7.50;88.90
32293;DHT22;43233;48.608;8.838;2023-04-08T00:35:58;7.50;88.40
32293;DHT22;43233;48.608;8.838;2023-04-08T00:38:23;7.60;88.60
32293;DHT22;43233;48.608;8.838;2023-04-08T00:40:49;7.50;88.50
32293;DHT22;43233;48.608;8.838;2023-04-08T00:43:15;7.50;88.30
32293;DHT22;43233;48.608;8.838;2023-04-08T00:45:45;7.60;88.00
32293;DHT22;43233;48.608;8.838;2023-04-08T00:48:11;7.60;87.20
32293;DHT22;43233;48.608;8.838;2023-04-08T00:50:36;7.60;86.90
32293;DHT22;43233;48.608;8.838;2023-04-08T00:53:02;7.60;87.10
32293;DHT22;43233;48.608;8.838;2023-04-08T00:55:28;7.60;86.70
32293;DHT22;43233;48.608;8.838;2023-04-08T00:57:54;7.60;86.70
32293;DHT22;43233;48.608;8.838;2023-04-08T01:00:20;7.60;86.70
32293;DHT22;43233;48.608;8.838;2023-04-08T01:02:54;7.60;86.50
32293;DHT22;43233;48.608;8.838;2023-04-08T01:08:20;7.60;86.20
32293;DHT22;43233;48.608;8.838;2023-04-08T01:10:50;7.60;86.30
32293;DHT22;43233;48.608;8.838;2023-04-08T01:13:18;7.60;86.30
32293;DHT22;43233;48.608;8.838;2023-04-08T01:15:47;7.60;86.00
32293;DHT22;43233;48.608;8.838;2023-04-08T01:18:14;7.60;86.20
32293;DHT22;43233;48.608;8.838;2023-04-08T01:20:42;7.60;85.70
32293;DHT22;43233;48.608;8.838;2023-04-08T01:23:50;7.60;85.70
32293;DHT22;43233;48.608;8.838;2023-04-08T01:26:22;7.60;85.80
32293;DHT22;43233;48.608;8.838;2023-04-08T01:28:52;7.60;85.40
32293;DHT22;43233;48.608;8.838;2023-04-08T01:31:19;7.60;85.40
32293;DHT22;43233;48.608;8.838;2023-04-08T01:33:47;7.50;85.40
32293;DHT22;43233;48.608;8.838;2023-04-08T01:36:14;7.60;85.00
32293;DHT22;43233;48.608;8.838;2023-04-08T01:38:41;7.50;85.60
32293;DHT22;43233;48.608;8.838;2023-04-08T01:41:09;7.50;85.50
32293;DHT22;43233;48.608;8.838;2023-04-08T01:43:37;7.50;85.70
32293;DHT22;43233;48.608;8.838;2023-04-08T01:46:05;7.50;85.80
32293;DHT22;43233;48.608;8.838;2023-04-08T01:48:32;7.40;85.80
32293;DHT22;43233;48.608;8.838;2023-04-08T01:50:59;7.50;85.90
32293;DHT22;43233;48.608;8.838;2023-04-08T01:53:25;7.50;86.00
32293;DHT22;43233;48.608;8.838;2023-04-08T01:55:56;7.50;85.90
32293;DHT22;43233;48.608;8.838;2023-04-08T01:58:24;7.40;86.10
32293;DHT22;43233;48.608;8.838;2023-04-08T02:00:53;7.40;86.40
32293;DHT22;43233;48.608;8.838;2023-04-08T02:03:23;7.30;87.70
32293;DHT22;43233;48.608;8.838;2023-04-08T02:05:50;7.30;88.40
32293;DHT22;43233;48.608;8.838;2023-04-08T02:08:16;7.30;87.60
32293;DHT22;43233;48.608;8.838;2023-04-08T02:10:41;7.30;87.40
32293;DHT22;43233;48.608;8.838;2023-04-08T02:13:07;7.30;87.00
32293;DHT22;43233;48.608;8.838;2023-04-08T02:15:34;7.30;86.80
32293;DHT22;43233;48.608;8.838;2023-04-08T02:18:16;7.40;86.60
32293;DHT22;43233;48.608;8.838;2023-04-08T02:20:51;7.30;87.10
32293;DHT22;43233;48.608;8.838;2023-04-08T02:23:24;7.20;87.40
32293;DHT22;43233;48.608;8.838;2023-04-08T02:25:54;7.20;87.10
32293;DHT22;43233;48.608;8.838;2023-04-08T02:28:21;7.20;87.40
32293;DHT22;43233;48.608;8.838;2023-04-08T02:30:51;7.20;87.70
32293;DHT22;43233;48.608;8.838;2023-04-08T02:33:19;7.10;88.10
32293;DHT22;43233;48.608;8.838;2023-04-08T02:35:47;7.20;87.50
32293;DHT22;43233;48.608;8.838;2023-04-08T02:38:14;7.30;87.20
32293;DHT22;43233;48.608;8.838;2023-04-08T02:40:41;7.20;86.90
32293;DHT22;43233;48.608;8.838;2023-04-08T02:43:06;7.20;87.10
32293;DHT22;43233;48.608;8.838;2023-04-08T02:45:37;7.30;86.50
32293;DHT22;43233;48.608;8.838;2023-04-08T02:48:05;7.20;86.60
32293;DHT22;43233;48.608;8.838;2023-04-08T02:50:31;7.20;86.60
32293;DHT22;43233;48.608;8.838;2023-04-08T02:52:57;7.20;86.40
32293;DHT22;43233;48.608;8.838;2023-04-08T02:55:22;7.20;85.60
32293;DHT22;43233;48.608;8.838;2023-04-08T02:57:48;7.20;85.50
32293;DHT22;43233;48.608;8.838;2023-04-08T03:00:15;7.20;85.10
32293;DHT22;43233;48.608;8.838;2023-04-08T03:02:41;7.20;85.00
32293;DHT22;43233;48.608;8.838;2023-04-08T03:05:07;7.20;84.60
32293;DHT22;43233;48.608;8.838;2023-04-08T03:07:34;7.20;84.40
32293;DHT22;43233;48.608;8.838;2023-04-08T03:10:02;7.20;84.20
32293;DHT22;43233;48.608;8.838;2023-04-08T03:12:28;7.20;83.50
32293;DHT22;43233;48.608;8.838;2023-04-08T03:14:53;7.10;84.00
32293;DHT22;43233;48.608;8.838;2023-04-08T03:17:19;7.10;84.00
32293;DHT22;43233;48.608;8.838;2023-04-08T03:19:45;7.10;83.80
32293;DHT22;43233;48.608;8.838;2023-04-08T03:22:12;7.10;83.40
32293;DHT22;43233;48.608;8.838;2023-04-08T03:24:38;7.10;83.50
32293;DHT22;43233;48.608;8.838;2023-04-08T03:27:04;7.10;83.40
32293;DHT22;43233;48.608;8.838;2023-04-08T03:29:29;7.10;83.30
32293;DHT22;43233;48.608;8.838;2023-04-08T03:31:55;7.10;83.30
32293;DHT22;43233;48.608;8.838;2023-04-08T03:34:21;7.10;83.00
32293;DHT22;43233;48.608;8.838;2023-04-08T03:36:46;7.10;82.90
32293;DHT22;43233;48.608;8.838;2023-04-08T03:39:13;7.00;82.80
32293;DHT22;43233;48.608;8.838;2023-04-08T03:41:38;7.10;82.90
32293;DHT22;43233;48.608;8.838;2023-04-08T03:44:04;7.10;83.00
32293;DHT22;43233;48.608;8.838;2023-04-08T03:46:30;7.10;83.00
32293;DHT22;43233;48.608;8.838;2023-04-08T03:48:55;7.10;83.00
32293;DHT22;43233;48.608;8.838;2023-04-08T03:51:21;7.10;83.10
32293;DHT22;43233;48.608;8.838;2023-04-08T03:53:47;7.10;83.20
32293;DHT22;43233;48.608;8.838;2023-04-08T03:56:14;7.00;83.00
32293;DHT22;43233;48.608;8.838;2023-04-08T03:58:39;6.90;83.70
32293;DHT22;43233;48.608;8.838;2023-04-08T04:01:05;6.70;84.90
32293;DHT22;43233;48.608;8.838;2023-04-08T04:03:31;6.70;85.90
32293;DHT22;43233;48.608;8.838;2023-04-08T04:05:56;6.70;85.80
32293;DHT22;43233;48.608;8.838;2023-04-08T04:08:22;6.80;85.50
32293;DHT22;43233;48.608;8.838;2023-04-08T04:10:47;6.80;85.40
32293;DHT22;43233;48.608;8.838;2023-04-08T04:13:13;6.80;85.20
32293;DHT22;43233;48.608;8.838;2023-04-08T04:15:39;6.90;84.90
32293;DHT22;43233;48.608;8.838;2023-04-08T04:18:05;6.90;84.60
32293;DHT22;43233;48.608;8.838;2023-04-08T04:20:31;6.90;84.40
32293;DHT22;43233;48.608;8.838;2023-04-08T04:22:57;7.00;84.10
32293;DHT22;43233;48.608;8.838;2023-04-08T04:25:23;7.00;84.00
32293;DHT22;43233;48.608;8.838;2023-04-08T04:27:49;7.00;83.80
32293;DHT22;43233;48.608;8.838;2023-04-08T04:30:14;7.00;83.90
32293;DHT22;43233;48.608;8.838;2023-04-08T04:32:41;6.90;84.00
32293;DHT22;43233;48.608;8.838;2023-04-08T04:35:09;6.90;84.40
32293;DHT22;43233;48.608;8.838;2023-04-08T04:37:34;6.90;84.30
32293;DHT22;43233;48.608;8.838;2023-04-08T04:40:01;6.90;84.90
32293;DHT22;43233;48.608;8.838;2023-04-08T04:42:27;6.90;85.00
32293;DHT22;43233;48.608;8.838;2023-04-08T04:44:52;6.80;85.30
32293;DHT22;43233;48.608;8.838;2023-04-08T04:47:18;6.80;86.10
32293;DHT22;43233;48.608;8.838;2023-04-08T04:49:44;6.90;85.30
32293;DHT22;43233;48.608;8.838;2023-04-08T04:52:10;6.90;85.10
32293;DHT22;43233;48.608;8.838;2023-04-08T04:54:36;6.90;84.80
32293;DHT22;43233;48.608;8.838;2023-04-08T04:57:02;6.90;85.10
32293;DHT22;43233;48.608;8.838;2023-04-08T04:59:27;6.90;85.00
32293;DHT22;43233;48.608;8.838;2023-04-08T05:01:53;6.90;85.10
32293;DHT22;43233;48.608;8.838;2023-04-08T05:04:22;6.80;85.70
32293;DHT22;43233;48.608;8.838;2023-04-08T05:06:48;6.80;86.00
32293;DHT22;43233;48.608;8.838;2023-04-08T05:09:13;6.80;85.70
32293;DHT22;43233;48.608;8.838;2023-04-08T05:11:39;6.80;86.00
32293;DHT22;43233;48.608;8.838;2023-04-08T05:14:05;6.80;85.90
32293;DHT22;43233;48.608;8.838;2023-04-08T05:16:32;6.80;85.80
32293;DHT22;43233;48.608;8.838;2023-04-08T05:18:57;6.90;85.70
32293;DHT22;43233;48.608;8.838;2023-04-08T05:21:23;6.90;85.40
32293;DHT22;43233;48.608;8.838;2023-04-08T05:23:49;6.80;85.70
32293;DHT22;43233;48.608;8.838;2023-04-08T05:26:18;6.70;86.40
32293;DHT22;43233;48.608;8.838;2023-04-08T05:28:43;6.70;87.10
32293;DHT22;43233;48.608;8.838;2023-04-08T05:31:09;6.70;87.10
32293;DHT22;43233;48.608;8.838;2023-04-08T05:33:36;6.70;87.00
32293;DHT22;43233;48.608;8.838;2023-04-08T05:36:01;6.70;87.00
32293;DHT22;43233;48.608;8.838;2023-04-08T05:38:27;6.70;86.70
32293;DHT22;43233;48.608;8.838;2023-04-08T05:40:53;6.80;86.60
32293;DHT22;43233;48.608;8.838;2023-04-08T05:43:18;6.70;87.00
32293;DHT22;43233;48.608;8.838;2023-04-08T05:45:44;6.70;87.80
32293;DHT22;43233;48.608;8.838;2023-04-08T05:48:10;6.80;87.70
32293;DHT22;43233;48.608;8.838;2023-04-08T05:50:36;6.80;87.40
32293;DHT22;43233;48.608;8.838;2023-04-08T05:53:01;6.90;88.30
32293;DHT22;43233;48.608;8.838;2023-04-08T05:55:27;6.90;87.60
32293;DHT22;43233;48.608;8.838;2023-04-08T05:57:53;7.00;87.40
32293;DHT22;43233;48.608;8.838;2023-04-08T06:00:18;7.00;87.00
32293;DHT22;43233;48.608;8.838;2023-04-08T06:02:45;7.10;86.80
32293;DHT22;43233;48.608;8.838;2023-04-08T06:05:11;7.10;86.70
32293;DHT22;43233;48.608;8.838;2023-04-08T06:07:37;7.10;86.10
32293;DHT22;43233;48.608;8.838;2023-04-08T06:10:02;7.10;86.10
32293;DHT22;43233;48.608;8.838;2023-04-08T06:12:29;7.10;85.40
32293;DHT22;43233;48.608;8.838;2023-04-08T06:14:59;7.20;85.20
32293;DHT22;43233;48.608;8.838;2023-04-08T06:17:25;7.20;86.10
32293;DHT22;43233;48.608;8.838;2023-04-08T06:19:59;7.30;85.50
32293;DHT22;43233;48.608;8.838;2023-04-08T06:22:25;7.30;85.10
32293;DHT22;43233;48.608;8.838;2023-04-08T06:24:55;7.30;84.50
32293;DHT22;43233;48.608;8.838;2023-04-08T06:27:21;7.40;84.80
32293;DHT22;43233;48.608;8.838;2023-04-08T06:29:47;7.40;85.10
32293;DHT22;43233;48.608;8.838;2023-04-08T06:32:13;7.30;83.90
32293;DHT22;43233;48.608;8.838;2023-04-08T06:34:39;7.40;84.10
32293;DHT22;43233;48.608;8.838;2023-04-08T06:37:05;7.40;83.90
32293;DHT22;43233;48.608;8.838;2023-04-08T06:39:31;7.50;84.00
32293;DHT22;43233;48.608;8.838;2023-04-08T06:41:57;7.50;83.90
32293;DHT22;43233;48.608;8.838;2023-04-08T06:44:23;7.60;83.80
32293;DHT22;43233;48.608;8.838;2023-04-08T06:46:51;7.60;83.60
32293;DHT22;43233;48.608;8.838;2023-04-08T06:49:17;7.60;83.30
32293;DHT22;43233;48.608;8.838;2023-04-08T06:51:42;7.60;82.30
32293;DHT22;43233;48.608;8.838;2023-04-08T06:54:08;7.50;82.30
32293;DHT22;43233;48.608;8.838;2023-04-08T06:56:35;7.50;83.00
32293;DHT22;43233;48.608;8.838;2023-04-08T06:59:01;7.50;82.90
32293;DHT22;43233;48.608;8.838;2023-04-08T07:01:27;7.60;82.50
32293;DHT22;43233;48.608;8.838;2023-04-08T07:03:53;7.50;82.00
32293;DHT22;43233;48.608;8.838;2023-04-08T07:06:19;7.50;83.20
32293;DHT22;43233;48.608;8.838;2023-04-08T07:08:44;7.60;82.90
32293;DHT22;43233;48.608;8.838;2023-04-08T07:11:10;7.60;83.30
32293;DHT22;43233;48.608;8.838;2023-04-08T07:13:36;7.60;82.70
32293;DHT22;43233;48.608;8.838;2023-04-08T07:16:02;7.70;82.40
32293;DHT22;43233;48.608;8.838;2023-04-08T07:18:28;7.80;82.10
32293;DHT22;43233;48.608;8.838;2023-04-08T07:20:54;7.80;81.30
32293;DHT22;43233;48.608;8.838;2023-04-08T07:23:20;7.90;81.40
32293;DHT22;43233;48.608;8.838;2023-04-08T07:25:46;7.90;80.50
32293;DHT22;43233;48.608;8.838;2023-04-08T07:28:12;7.90;80.80
32293;DHT22;43233;48.608;8.838;2023-04-08T07:30:38;8.00;80.30
32293;DHT22;43233;48.608;8.838;2023-04-08T07:33:04;8.00;80.20
32293;DHT22;43233;48.608;8.838;2023-04-08T07:38:52;8.00;80.40
32293;DHT22;43233;48.608;8.838;2023-04-08T07:41:18;8.00;79.90
32293;DHT22;43233;48.608;8.838;2023-04-08T07:43:43;8.00;79.60
32293;DHT22;43233;48.608;8.838;2023-04-08T07:46:09;8.00;79.90
32293;DHT22;43233;48.608;8.838;2023-04-08T07:48:35;8.00;80.30
32293;DHT22;43233;48.608;8.838;2023-04-08T07:51:05;8.00;79.40
32293;DHT22;43233;48.608;8.838;2023-04-08T07:53:31;7.90;80.30
32293;DHT22;43233;48.608;8.838;2023-04-08T07:55:58;7.90;81.40
32293;DHT22;43233;48.608;8.838;2023-04-08T07:58:23;7.90;81.10
32293;DHT22;43233;48.608;8.838;2023-04-08T08:00:49;7.90;81.70
32293;DHT22;43233;48.608;8.838;2023-04-08T08:03:16;8.00;81.60
32293;DHT22;43233;48.608;8.838;2023-04-08T08:05:42;7.90;80.50
32293;DHT22;43233;48.608;8.838;2023-04-08T08:08:08;7.90;80.40
32293;DHT22;43233;48.608;8.838;2023-04-08T08:10:37;8.00;79.60
32293;DHT22;43233;48.608;8.838;2023-04-08T08:13:04;8.10;79.00
32293;DHT22;43233;48.608;8.838;2023-04-08T08:15:30;8.10;78.70
32293;DHT22;43233;48.608;8.838;2023-04-08T08:17:56;8.10;78.20
32293;DHT22;43233;48.608;8.838;2023-04-08T08:20:22;8.10;77.50
32293;DHT22;43233;48.608;8.838;2023-04-08T08:22:47;8.20;77.20
32293;DHT22;43233;48.608;8.838;2023-04-08T08:25:13;8.20;76.70
32293;DHT22;43233;48.608;8.838;2023-04-08T08:27:39;8.30;77.70
32293;DHT22;43233;48.608;8.838;2023-04-08T08:30:07;8.40;77.40
32293;DHT22;43233;48.608;8.838;2023-04-08T08:32:34;8.50;76.70
32293;DHT22;43233;48.608;8.838;2023-04-08T08:35:00;8.60;76.30
32293;DHT22;43233;48.608;8.838;2023-04-08T08:37:26;8.70;75.80
32293;DHT22;43233;48.608;8.838;2023-04-08T08:39:51;8.70;75.80
32293;DHT22;43233;48.608;8.838;2023-04-08T08:42:21;8.80;75.70
32293;DHT22;43233;48.608;8.838;2023-04-08T08:44:49;8.90;75.30
32293;DHT22;43233;48.608;8.838;2023-04-08T08:47:17;8.90;75.20
32293;DHT22;43233;48.608;8.838;2023-04-08T08:49:44;9.00;75.40
32293;DHT22;43233;48.608;8.838;2023-04-08T08:52:11;9.10;75.20
32293;DHT22;43233;48.608;8.838;2023-04-08T08:54:40;9.20;74.00
32293;DHT22;43233;48.608;8.838;2023-04-08T08:57:16;9.20;73.50
32293;DHT22;43233;48.608;8.838;2023-04-08T08:59:42;9.30;71.90
32293;DHT22;43233;48.608;8.838;2023-04-08T09:02:30;9.30;72.30
32293;DHT22;43233;48.608;8.838;2023-04-08T09:04:58;9.40;70.90
32293;DHT22;43233;48.608;8.838;2023-04-08T09:07:25;9.40;71.00
32293;DHT22;43233;48.608;8.838;2023-04-08T09:09:54;9.40;71.00
32293;DHT22;43233;48.608;8.838;2023-04-08T09:12:21;9.50;71.20
32293;DHT22;43233;48.608;8.838;2023-04-08T09:15:04;9.60;68.90
32293;DHT22;43233;48.608;8.838;2023-04-08T09:17:34;9.70;68.10
32293;DHT22;43233;48.608;8.838;2023-04-08T09:20:10;9.70;68.30
32293;DHT22;43233;48.608;8.838;2023-04-08T09:22:59;9.80;67.20
32293;DHT22;43233;48.608;8.838;2023-04-08T09:25:30;9.70;66.20
32293;DHT22;43233;48.608;8.838;2023-04-08T09:27:59;9.80;66.10
32293;DHT22;43233;48.608;8.838;2023-04-08T09:30:26;9.90;65.20
32293;DHT22;43233;48.608;8.838;2023-04-08T09:32:55;10.00;65.10
32293;DHT22;43233;48.608;8.838;2023-04-08T09:35:21;10.10;63.60
32293;DHT22;43233;48.608;8.838;2023-04-08T09:37:48;10.20;63.00
32293;DHT22;43233;48.608;8.838;2023-04-08T09:40:14;10.30;63.30
32293;DHT22;43233;48.608;8.838;2023-04-08T09:42:44;10.40;64.80
32293;DHT22;43233;48.608;8.838;2023-04-08T09:45:11;10.40;63.40
32293;DHT22;43233;48.608;8.838;2023-04-08T09:48:27;10.60;63.00
32293;DHT22;43233;48.608;8.838;2023-04-08T09:50:31;10.70;64.20
32293;DHT22;43233;48.608;8.838;2023-04-08T09:53:07;10.80;63.10
32293;DHT22;43233;48.608;8.838;2023-04-08T09:55:35;10.90;59.40
32293;DHT22;43233;48.608;8.838;2023-04-08T09:58:15;11.00;59.90
32293;DHT22;43233;48.608;8.838;2023-04-08T10:00:46;11.20;60.70
32293;DHT22;43233;48.608;8.838;2023-04-08T10:03:26;11.30;55.90
32293;DHT22;43233;48.608;8.838;2023-04-08T10:05:54;11.40;54.80
32293;DHT22;43233;48.608;8.838;2023-04-08T10:08:24;11.50;53.30
32293;DHT22;43233;48.608;8.838;2023-04-08T10:10:52;11.50;50.60
32293;DHT22;43233;48.608;8.838;2023-04-08T10:13:18;11.50;51.30
32293;DHT22;43233;48.608;8.838;2023-04-08T10:15:44;11.50;52.90
32293;DHT22;43233;48.608;8.838;2023-04-08T10:20:45;11.60;53.30
32293;DHT22;43233;48.608;8.838;2023-04-08T10:23:12;11.70;50.20
32293;DHT22;43233;48.608;8.838;2023-04-08T10:25:39;11.80;50.80
32293;DHT22;43233;48.608;8.838;2023-04-08T10:30:44;12.10;51.30
32293;DHT22;43233;48.608;8.838;2023-04-08T10:33:15;12.20;50.70
32293;DHT22;43233;48.608;8.838;2023-04-08T10:36:08;12.30;49.10
32293;DHT22;43233;48.608;8.838;2023-04-08T10:38:34;12.30;47.60
32293;DHT22;43233;48.608;8.838;2023-04-08T10:41:00;12.30;48.20
32293;DHT22;43233;48.608;8.838;2023-04-08T10:43:31;12.30;48.30
32293;DHT22;43233;48.608;8.838;2023-04-08T10:45:58;12.30;47.80
32293;DHT22;43233;48.608;8.838;2023-04-08T10:48:24;12.30;47.20
32293;DHT22;43233;48.608;8.838;2023-04-08T10:53:29;12.30;46.70
32293;DHT22;43233;48.608;8.838;2023-04-08T10:56:14;12.40;46.00
32293;DHT22;43233;48.608;8.838;2023-04-08T10:58:51;12.50;43.90
32293;DHT22;43233;48.608;8.838;2023-04-08T11:01:17;12.30;44.30
32293;DHT22;43233;48.608;8.838;2023-04-08T11:03:43;12.30;44.50
32293;DHT22;43233;48.608;8.838;2023-04-08T11:06:09;12.30;44.50
32293;DHT22;43233;48.608;8.838;2023-04-08T11:08:35;12.20;44.90
32293;DHT22;43233;48.608;8.838;2023-04-08T11:11:03;12.10;46.10
32293;DHT22;43233;48.608;8.838;2023-04-08T11:13:30;12.10;46.30
32293;DHT22;43233;48.608;8.838;2023-04-08T11:15:58;12.10;44.60
32293;DHT22;43233;48.608;8.838;2023-04-08T11:18:24;12.00;45.30
32293;DHT22;43233;48.608;8.838;2023-04-08T11:20:51;12.00;44.80
32293;DHT22;43233;48.608;8.838;2023-04-08T11:23:17;12.00;46.30
32293;DHT22;43233;48.608;8.838;2023-04-08T11:25:44;12.10;45.70
32293;DHT22;43233;48.608;8.838;2023-04-08T11:28:12;12.10;45.90
32293;DHT22;43233;48.608;8.838;2023-04-08T11:30:39;12.20;45.90
32293;DHT22;43233;48.608;8.838;2023-04-08T11:33:06;12.10;45.50
32293;DHT22;43233;48.608;8.838;2023-04-08T11:35:32;12.10;46.00
32293;DHT22;43233;48.608;8.838;2023-04-08T11:37:58;12.10;45.40
32293;DHT22;43233;48.608;8.838;2023-04-08T11:40:25;12.00;45.20
32293;DHT22;43233;48.608;8.838;2023-04-08T11:42:51;11.90;45.00
32293;DHT22;43233;48.608;8.838;2023-04-08T11:45:19;11.90;45.90
32293;DHT22;43233;48.608;8.838;2023-04-08T11:47:46;11.90;46.10
32293;DHT22;43233;48.608;8.838;2023-04-08T11:50:24;11.80;46.50
32293;DHT22;43233;48.608;8.838;2023-04-08T11:52:51;11.70;46.70
32293;DHT22;43233;48.608;8.838;2023-04-08T11:55:25;11.70;46.30
32293;DHT22;43233;48.608;8.838;2023-04-08T11:57:51;11.50;46.30
32293;DHT22;43233;48.608;8.838;2023-04-08T12:00:17;11.30;45.40
32293;DHT22;43233;48.608;8.838;2023-04-08T12:02:44;11.20;47.00
32293;DHT22;43233;48.608;8.838;2023-04-08T12:05:09;11.20;47.70
32293;DHT22;43233;48.608;8.838;2023-04-08T12:07:36;11.10;47.40
32293;DHT22;43233;48.608;8.838;2023-04-08T12:10:02;11.10;48.30
32293;DHT22;43233;48.608;8.838;2023-04-08T12:12:27;11.10;48.80
32293;DHT22;43233;48.608;8.838;2023-04-08T12:14:53;11.10;49.00
32293;DHT22;43233;48.608;8.838;2023-04-08T12:17:19;11.20;49.30
32293;DHT22;43233;48.608;8.838;2023-04-08T12:19:44;11.20;48.50
32293;DHT22;43233;48.608;8.838;2023-04-08T12:22:11;11.10;49.10
32293;DHT22;43233;48.608;8.838;2023-04-08T12:24:36;11.20;48.60
32293;DHT22;43233;48.608;8.838;2023-04-08T12:27:02;11.20;47.70
32293;DHT22;43233;48.608;8.838;2023-04-08T12:29:29;11.10;47.90
32293;DHT22;43233;48.608;8.838;2023-04-08T12:31:55;11.10;48.80
32293;DHT22;43233;48.608;8.838;2023-04-08T12:34:21;11.20;48.80
32293;DHT22;43233;48.608;8.838;2023-04-08T12:36:47;11.10;48.80
32293;DHT22;43233;48.608;8.838;2023-04-08T12:39:14;11.20;49.10
32293;DHT22;43233;48.608;8.838;2023-04-08T12:41:39;11.20;49.00
32293;DHT22;43233;48.608;8.838;2023-04-08T12:44:05;11.10;49.50
32293;DHT22;43233;48.608;8.838;2023-04-08T12:46:31;11.10;48.90
32293;DHT22;43233;48.608;8.838;2023-04-08T12:48:57;11.10;48.60
32293;DHT22;43233;48.608;8.838;2023-04-08T12:51:22;11.10;48.70
32293;DHT22;43233;48.608;8.838;2023-04-08T12:53:50;11.00;49.70
32293;DHT22;43233;48.608;8.838;2023-04-08T12:56:16;11.00;49.20
32293;DHT22;43233;48.608;8.838;2023-04-08T12:58:42;11.00;50.20
32293;DHT22;43233;48.608;8.838;2023-04-08T13:01:07;11.10;50.50
32293;DHT22;43233;48.608;8.838;2023-04-08T13:03:33;11.20;50.10
32293;DHT22;43233;48.608;8.838;2023-04-08T13:06:00;11.10;49.40
32293;DHT22;43233;48.608;8.838;2023-04-08T13:08:26;11.10;50.10
32293;DHT22;43233;48.608;8.838;2023-04-08T13:10:52;11.00;48.20
32293;DHT22;43233;48.608;8.838;2023-04-08T13:13:18;10.90;48.00
32293;DHT22;43233;48.608;8.838;2023-04-08T13:15:43;10.90;48.40
32293;DHT22;43233;48.608;8.838;2023-04-08T13:18:09;11.00;47.90
32293;DHT22;43233;48.608;8.838;2023-04-08T13:20:35;11.10;45.80
32293;DHT22;43233;48.608;8.838;2023-04-08T13:23:01;11.10;45.30
32293;DHT22;43233;48.608;8.838;2023-04-08T13:25:26;11.20;44.80
32293;DHT22;43233;48.608;8.838;2023-04-08T13:27:52;11.10;44.60
32293;DHT22;43233;48.608;8.838;2023-04-08T13:30:18;10.80;45.30
32293;DHT22;43233;48.608;8.838;2023-04-08T13:32:43;10.90;46.10
32293;DHT22;43233;48.608;8.838;2023-04-08T13:35:09;10.90;45.60
32293;DHT22;43233;48.608;8.838;2023-04-08T13:37:35;10.80;45.10
32293;DHT22;43233;48.608;8.838;2023-04-08T13:40:01;10.90;45.30
32293;DHT22;43233;48.608;8.838;2023-04-08T13:42:27;10.90;44.80
32293;DHT22;43233;48.608;8.838;2023-04-08T13:44:56;10.70;44.40
32293;DHT22;43233;48.608;8.838;2023-04-08T13:47:22;10.70;45.70
32293;DHT22;43233;48.608;8.838;2023-04-08T13:49:47;10.70;45.50
32293;DHT22;43233;48.608;8.838;2023-04-08T13:52:13;10.60;45.10
32293;DHT22;43233;48.608;8.838;2023-04-08T13:54:39;10.60;44.30
32293;DHT22;43233;48.608;8.838;2023-04-08T13:57:05;10.70;43.50
32293;DHT22;43233;48.608;8.838;2023-04-08T13:59:30;10.60;42.60
32293;DHT22;43233;48.608;8.838;2023-04-08T14:01:56;10.70;42.60
32293;DHT22;43233;48.608;8.838;2023-04-08T14:04:22;10.80;42.40
32293;DHT22;43233;48.608;8.838;2023-04-08T14:06:49;10.80;42.80
32293;DHT22;43233;48.608;8.838;2023-04-08T14:09:19;10.90;44.10
32293;DHT22;43233;48.608;8.838;2023-04-08T14:11:45;11.00;42.90
32293;DHT22;43233;48.608;8.838;2023-04-08T14:14:11;11.00;43.00
32293;DHT22;43233;48.608;8.838;2023-04-08T14:16:36;10.90;43.30
32293;DHT22;43233;48.608;8.838;2023-04-08T14:19:02;10.90;43.80
32293;DHT22;43233;48.608;8.838;2023-04-08T14:21:29;11.00;43.90
32293;DHT22;43233;48.608;8.838;2023-04-08T14:23:56;11.10;44.80
32293;DHT22;43233;48.608;8.838;2023-04-08T14:26:22;11.20;43.30
32293;DHT22;43233;48.608;8.838;2023-04-08T14:28:48;11.10;43.40
32293;DHT22;43233;48.608;8.838;2023-04-08T14:31:13;11.20;43.70
32293;DHT22;43233;48.608;8.838;2023-04-08T14:33:40;11.30;41.60
32293;DHT22;43233;48.608;8.838;2023-04-08T14:36:07;11.30;42.10
32293;DHT22;43233;48.608;8.838;2023-04-08T14:38:32;11.40;42.30
32293;DHT22;43233;48.608;8.838;2023-04-08T14:40:58;11.40;41.60
32293;DHT22;43233;48.608;8.838;2023-04-08T14:43:23;11.40;42.00
32293;DHT22;43233;48.608;8.838;2023-04-08T14:45:50;11.50;41.20
32293;DHT22;43233;48.608;8.838;2023-04-08T14:48:18;11.50;40.30
32293;DHT22;43233;48.608;8.838;2023-04-08T14:50:44;11.50;40.00
32293;DHT22;43233;48.608;8.838;2023-04-08T14:53:10;11.40;38.70
32293;DHT22;43233;48.608;8.838;2023-04-08T14:55:36;11.40;39.00
32293;DHT22;43233;48.608;8.838;2023-04-08T14:58:03;11.40;39.20
32293;DHT22;43233;48.608;8.838;2023-04-08T15:00:29;11.40;39.80
32293;DHT22;43233;48.608;8.838;2023-04-08T15:02:55;11.50;40.70
32293;DHT22;43233;48.608;8.838;2023-04-08T15:05:20;11.50;39.90
32293;DHT22;43233;48.608;8.838;2023-04-08T15:07:46;11.40;39.10
32293;DHT22;43233;48.608;8.838;2023-04-08T15:10:13;11.30;40.70
32293;DHT22;43233;48.608;8.838;2023-04-08T15:12:39;11.40;41.50
32293;DHT22;43233;48.608;8.838;2023-04-08T15:15:05;11.50;41.40
32293;DHT22;43233;48.608;8.838;2023-04-08T15:17:31;11.50;41.70
32293;DHT22;43233;48.608;8.838;2023-04-08T15:19:58;11.50;41.50
32293;DHT22;43233;48.608;8.838;2023-04-08T15:22:24;11.60;39.40
32293;DHT22;43233;48.608;8.838;2023-04-08T15:24:50;11.50;40.40
32293;DHT22;43233;48.608;8.838;2023-04-08T15:27:15;11.50;41.50
32293;DHT22;43233;48.608;8.838;2023-04-08T15:29:41;11.60;41.20
32293;DHT22;43233;48.608;8.838;2023-04-08T15:32:07;11.70;40.80
32293;DHT22;43233;48.608;8.838;2023-04-08T15:34:33;11.70;40.90
32293;DHT22;43233;48.608;8.838;2023-04-08T15:36:58;11.80;41.20
32293;DHT22;43233;48.608;8.838;2023-04-08T15:39:26;11.80;40.70
32293;DHT22;43233;48.608;8.838;2023-04-08T15:41:51;11.80;40.50
32293;DHT22;43233;48.608;8.838;2023-04-08T15:44:17;11.90;40.50
32293;DHT22;43233;48.608;8.838;2023-04-08T15:46:43;11.90;40.10
32293;DHT22;43233;48.608;8.838;2023-04-08T15:49:09;11.80;40.90
32293;DHT22;43233;48.608;8.838;2023-04-08T15:51:34;11.80;40.80
32293;DHT22;43233;48.608;8.838;2023-04-08T15:54:00;11.90;41.60